createdAt,value
2022-12-15T00:00:59.837Z,44.20
2022-12-15T00:03:26.450Z,44.16
2022-12-15T00:05:52.800Z,44.07
2022-12-15T00:08:19.033Z,44.10
2022-12-15T00:10:45.535Z,44.15
2022-12-15T00:13:12.186Z,44.11
2022-12-15T00:15:38.611Z,44.16
2022-12-15T00:18:04.955Z,44.21
2022-12-15T00:20:31.201Z,44.12
2022-12-15T00:22:57.512Z,44.14
2022-12-15T00:25:23.875Z,44.10
2022-12-15T00:27:50.265Z,43.99
2022-12-15T00:30:16.570Z,44.05
2022-12-15T00:32:42.943Z,44.16
2022-12-15T00:35:09.406Z,44.09
2022-12-15T00:37:35.662Z,44.11
2022-12-15T00:40:01.941Z,44.04
2022-12-15T00:42:28.205Z,44.06
2022-12-15T00:44:54.692Z,44.00
2022-12-15T00:47:20.966Z,44.12
2022-12-15T00:49:47.304Z,44.17
2022-12-15T00:52:13.601Z,44.15
2022-12-15T00:54:39.904Z,44.08
2022-12-15T00:57:06.258Z,44.08
2022-12-15T00:59:32.579Z,44.25
2022-12-15T01:01:59.065Z,44.14
2022-12-15T01:04:25.565Z,44.26
2022-12-15T01:06:51.853Z,44.09
2022-12-15T01:09:18.159Z,44.24
2022-12-15T01:11:44.545Z,44.27
2022-12-15T01:14:10.782Z,44.23
2022-12-15T01:16:37.178Z,44.12
2022-12-15T01:19:03.506Z,44.30
2022-12-15T01:21:29.855Z,44.22
2022-12-15T01:23:56.087Z,44.24
2022-12-15T01:26:22.459Z,43.96
2022-12-15T01:28:48.816Z,44.25
2022-12-15T01:31:15.275Z,44.11
2022-12-15T01:33:41.605Z,44.12
2022-12-15T01:36:07.909Z,44.33
2022-12-15T01:38:34.239Z,44.34
2022-12-15T01:41:00.555Z,44.32
2022-12-15T01:43:26.943Z,44.27
2022-12-15T01:45:53.316Z,44.34
2022-12-15T01:48:19.646Z,44.30
2022-12-15T01:50:45.947Z,44.36
2022-12-15T01:53:12.385Z,44.21
2022-12-15T01:55:38.686Z,44.24
2022-12-15T01:58:05.124Z,44.29
2022-12-15T02:00:31.416Z,44.33
2022-12-15T02:02:58.132Z,44.19
2022-12-15T02:05:24.747Z,44.29
2022-12-15T02:07:51.139Z,44.29
2022-12-15T02:10:17.527Z,44.47
2022-12-15T02:12:43.903Z,44.58
2022-12-15T02:15:10.289Z,44.39
2022-12-15T02:17:36.677Z,44.46
2022-12-15T02:20:03.038Z,44.33
2022-12-15T02:22:29.318Z,44.43
2022-12-15T02:24:55.593Z,44.48
2022-12-15T02:27:22.030Z,44.35
2022-12-15T02:29:48.468Z,44.41
2022-12-15T02:32:14.783Z,44.49
2022-12-15T02:34:41.130Z,44.47
2022-12-15T02:37:07.411Z,44.44
2022-12-15T02:39:33.750Z,44.45
2022-12-15T02:42:00.079Z,44.38
2022-12-15T02:44:26.348Z,44.38
2022-12-15T02:46:52.648Z,44.31
2022-12-15T02:49:18.911Z,44.57
2022-12-15T02:51:45.274Z,44.49
2022-12-15T02:54:11.529Z,44.41
2022-12-15T02:56:37.888Z,44.33
2022-12-15T02:59:04.252Z,44.52
2022-12-15T03:01:30.707Z,44.40
2022-12-15T03:03:57.274Z,44.42
2022-12-15T03:06:23.642Z,44.45
2022-12-15T03:08:49.913Z,44.54
2022-12-15T03:11:16.210Z,44.56
2022-12-15T03:13:42.627Z,44.43
2022-12-15T03:16:08.930Z,44.61
2022-12-15T03:18:35.246Z,44.58
2022-12-15T03:21:01.544Z,44.63
2022-12-15T03:23:28.072Z,44.52
2022-12-15T03:25:54.764Z,44.52
2022-12-15T03:28:21.146Z,44.43
2022-12-15T03:30:50.390Z,44.24
2022-12-15T03:33:17.083Z,44.50
2022-12-15T03:35:43.327Z,44.53
2022-12-15T03:38:10.148Z,44.61
2022-12-15T03:40:36.568Z,44.67
2022-12-15T03:43:03.056Z,44.75
2022-12-15T03:45:29.609Z,44.62
2022-12-15T03:47:56.245Z,44.66
2022-12-15T03:50:22.536Z,44.63
2022-12-15T03:52:49.156Z,44.60
2022-12-15T03:55:15.470Z,44.55
2022-12-15T03:57:41.798Z,44.47
2022-12-15T04:00:08.058Z,44.50
2022-12-15T04:02:34.470Z,44.46
2022-12-15T04:05:00.978Z,44.50
2022-12-15T04:07:27.316Z,44.62
2022-12-15T04:09:53.857Z,44.63
2022-12-15T04:12:20.099Z,44.39
2022-12-15T04:14:46.378Z,44.58
2022-12-15T04:17:15.996Z,44.53
2022-12-15T04:19:42.514Z,44.61
2022-12-15T04:22:11.553Z,44.58
2022-12-15T04:24:40.124Z,44.62
2022-12-15T04:27:06.388Z,44.78
2022-12-15T04:29:32.711Z,44.70
2022-12-15T04:31:59.030Z,44.74
2022-12-15T04:34:25.391Z,44.66
2022-12-15T04:36:51.762Z,44.58
2022-12-15T04:39:18.114Z,44.63
2022-12-15T04:41:44.525Z,44.75
2022-12-15T04:44:10.848Z,44.82
2022-12-15T04:46:37.264Z,44.75
2022-12-15T04:49:03.639Z,44.85
2022-12-15T04:51:29.948Z,44.85
2022-12-15T04:53:56.258Z,44.55
2022-12-15T04:56:22.505Z,44.76
2022-12-15T04:58:48.882Z,44.82
2022-12-15T05:01:15.254Z,44.88
2022-12-15T05:03:41.569Z,44.89
2022-12-15T05:06:07.985Z,44.81
2022-12-15T05:08:34.459Z,44.78
2022-12-15T05:11:00.753Z,44.91
2022-12-15T05:13:27.299Z,44.93
2022-12-15T05:15:53.678Z,44.85
2022-12-15T05:18:20.041Z,44.87
2022-12-15T05:20:46.272Z,44.90
2022-12-15T05:23:16.680Z,44.93
2022-12-15T05:25:42.979Z,44.86
2022-12-15T05:28:09.290Z,44.97
2022-12-15T05:30:35.715Z,44.99
2022-12-15T05:33:02.060Z,44.94
2022-12-15T05:35:28.431Z,44.87
2022-12-15T05:37:54.764Z,44.93
2022-12-15T05:40:21.211Z,45.02
2022-12-15T05:42:50.224Z,44.90
2022-12-15T05:45:16.732Z,44.94
2022-12-15T05:47:43.116Z,44.98
2022-12-15T05:50:09.593Z,45.04
2022-12-15T05:52:35.893Z,45.11
2022-12-15T05:55:02.156Z,45.13
2022-12-15T05:57:28.495Z,44.94
2022-12-15T05:59:54.799Z,45.06
2022-12-15T06:02:21.084Z,45.17
2022-12-15T06:04:47.592Z,45.11
2022-12-15T06:07:14.035Z,45.11
2022-12-15T06:09:40.304Z,44.98
2022-12-15T06:12:06.602Z,45.05
2022-12-15T06:14:32.934Z,45.26
2022-12-15T06:16:59.314Z,45.15
2022-12-15T06:19:25.727Z,45.09
2022-12-15T06:21:52.063Z,45.18
2022-12-15T06:24:18.345Z,45.35
2022-12-15T06:26:44.743Z,45.08
2022-12-15T06:29:11.149Z,45.11
2022-12-15T06:31:37.468Z,45.20
2022-12-15T06:34:03.799Z,45.28
2022-12-15T06:36:30.144Z,45.10
2022-12-15T06:38:56.670Z,45.09
2022-12-15T06:41:23.065Z,45.17
2022-12-15T06:43:49.553Z,45.19
2022-12-15T06:46:16.158Z,45.21
2022-12-15T06:48:42.645Z,45.33
2022-12-15T06:51:16.396Z,45.37
2022-12-15T06:53:43.512Z,45.28
2022-12-15T06:56:09.752Z,45.29
2022-12-15T06:58:36.202Z,45.20
2022-12-15T07:01:02.507Z,45.25
2022-12-15T07:03:29.101Z,45.33
2022-12-15T07:05:55.760Z,45.33
2022-12-15T07:08:27.050Z,45.48
2022-12-15T07:10:56.663Z,45.45
2022-12-15T07:13:22.975Z,45.41
2022-12-15T07:15:49.472Z,45.42
2022-12-15T07:18:16.248Z,45.37
2022-12-15T07:20:42.595Z,45.46
2022-12-15T07:23:08.871Z,45.39
2022-12-15T07:25:35.130Z,45.57
2022-12-15T07:28:01.900Z,45.41
2022-12-15T07:30:29.584Z,45.31
2022-12-15T07:32:57.717Z,45.42
2022-12-15T07:35:24.149Z,45.53
2022-12-15T07:37:50.556Z,45.43
2022-12-15T07:40:16.828Z,45.54
2022-12-15T07:42:43.302Z,45.50
2022-12-15T07:45:09.624Z,45.51
2022-12-15T07:47:36.846Z,45.42
2022-12-15T07:50:03.291Z,45.51
2022-12-15T07:52:29.537Z,45.63
2022-12-15T07:54:55.923Z,45.46
2022-12-15T07:57:22.255Z,45.50
2022-12-15T07:59:48.573Z,45.53
2022-12-15T08:02:15.215Z,45.51
2022-12-15T08:04:41.762Z,45.52
2022-12-15T08:07:08.170Z,45.53
2022-12-15T08:09:34.487Z,45.62
2022-12-15T08:12:00.896Z,45.51
2022-12-15T08:14:27.240Z,45.61
2022-12-15T08:16:53.570Z,45.58
2022-12-15T08:19:19.964Z,45.58
2022-12-15T08:21:46.315Z,45.70
2022-12-15T08:24:12.601Z,45.57
2022-12-15T08:26:39.045Z,45.70
2022-12-15T08:34:22.609Z,45.56
2022-12-15T08:36:48.932Z,45.47
2022-12-15T08:39:15.432Z,45.56
2022-12-15T08:41:41.699Z,45.69
2022-12-15T08:44:08.116Z,45.54
2022-12-15T08:46:34.493Z,45.31
2022-12-15T08:49:00.937Z,45.42
2022-12-15T08:51:27.284Z,45.48
2022-12-15T08:53:53.682Z,45.62
2022-12-15T08:56:20.044Z,45.63
2022-12-15T08:58:46.560Z,46.47
2022-12-15T09:01:16.081Z,46.13
2022-12-15T09:03:47.146Z,46.10
2022-12-15T09:06:13.419Z,46.23
2022-12-15T09:08:39.722Z,46.08
2022-12-15T09:11:06.108Z,46.13
2022-12-15T09:13:32.804Z,46.03
2022-12-15T09:16:09.476Z,46.05
2022-12-15T09:18:36.908Z,46.10
2022-12-15T09:21:03.196Z,46.12
2022-12-15T09:23:29.909Z,46.12
2022-12-15T09:25:56.541Z,46.05
2022-12-15T09:28:22.871Z,45.91
2022-12-15T09:30:49.240Z,45.90
2022-12-15T09:33:15.482Z,45.89
2022-12-15T09:35:41.764Z,45.85
2022-12-15T09:38:08.032Z,45.86
2022-12-15T09:40:34.518Z,45.84
2022-12-15T09:43:32.718Z,45.93
2022-12-15T09:45:47.259Z,45.94
2022-12-15T09:48:13.589Z,45.81
2022-12-15T09:50:39.981Z,45.84
2022-12-15T09:53:23.138Z,45.83
2022-12-15T09:55:52.517Z,45.79
2022-12-15T09:58:19.297Z,45.85
2022-12-15T10:00:45.690Z,45.83
2022-12-15T10:08:18.642Z,45.70
2022-12-15T10:13:24.655Z,45.68
2022-12-15T10:15:51.033Z,45.82
2022-12-15T10:18:17.898Z,45.81
2022-12-15T10:20:44.311Z,45.79
2022-12-15T10:23:14.877Z,45.76
2022-12-15T10:25:41.901Z,45.79
2022-12-15T10:28:08.240Z,45.80
2022-12-15T10:30:37.760Z,46.00
2022-12-15T10:33:04.191Z,45.95
2022-12-15T10:35:30.589Z,45.70
2022-12-15T10:37:57.018Z,45.74
2022-12-15T10:40:23.379Z,45.73
2022-12-15T10:42:49.820Z,45.83
2022-12-15T10:45:16.581Z,46.12
2022-12-15T10:47:43.031Z,46.08
2022-12-15T10:50:09.730Z,45.98
2022-12-15T10:52:36.164Z,46.10
2022-12-15T10:55:02.449Z,45.95
2022-12-15T10:57:28.716Z,46.01
2022-12-15T10:59:55.248Z,46.45
2022-12-15T11:02:24.306Z,46.40
2022-12-15T11:04:51.808Z,46.39
2022-12-15T11:07:18.071Z,46.53
2022-12-15T11:09:44.807Z,46.61
2022-12-15T11:12:12.574Z,46.73
2022-12-15T11:14:38.970Z,46.67
2022-12-15T11:17:05.309Z,46.85
2022-12-15T11:19:31.794Z,47.00
2022-12-15T11:21:58.185Z,46.97
2022-12-15T11:24:24.643Z,47.11
2022-12-15T11:26:51.403Z,47.13
2022-12-15T11:29:17.762Z,47.04
2022-12-15T11:31:44.122Z,47.27
2022-12-15T11:36:46.725Z,47.43
2022-12-15T11:39:14.958Z,47.30
2022-12-15T11:41:41.275Z,47.19
2022-12-15T11:44:07.563Z,47.48
2022-12-15T11:46:33.874Z,47.65
2022-12-15T11:49:00.242Z,47.63
2022-12-15T11:51:26.535Z,47.55
2022-12-15T11:53:52.782Z,47.58
2022-12-15T11:56:19.089Z,47.62
2022-12-15T11:58:45.370Z,47.52
2022-12-15T12:01:15.075Z,47.55
2022-12-15T12:03:41.444Z,47.56
2022-12-15T12:06:07.801Z,47.76
2022-12-15T12:08:34.886Z,47.67
2022-12-15T12:11:01.508Z,47.49
2022-12-15T12:13:27.833Z,47.80
2022-12-15T12:15:54.292Z,47.72
2022-12-15T12:18:20.624Z,47.61
2022-12-15T12:20:46.915Z,47.61
2022-12-15T12:23:13.220Z,47.58
2022-12-15T12:25:39.506Z,47.73
2022-12-15T12:28:05.861Z,47.53
2022-12-15T12:30:32.179Z,47.66
2022-12-15T12:32:58.625Z,47.67
2022-12-15T12:35:31.899Z,47.63
2022-12-15T12:38:03.101Z,47.73
2022-12-15T12:40:30.122Z,47.62
2022-12-15T12:42:56.533Z,47.75
2022-12-15T12:45:22.966Z,47.61
2022-12-15T12:47:49.333Z,47.52
2022-12-15T12:50:16.679Z,47.63
2022-12-15T12:52:42.995Z,47.54
2022-12-15T12:57:55.540Z,47.63
2022-12-15T13:00:22.057Z,47.58
2022-12-15T13:02:48.495Z,47.76
2022-12-15T13:05:16.871Z,47.80
2022-12-15T13:07:43.232Z,47.94
2022-12-15T13:10:10.077Z,48.10
2022-12-15T13:12:52.921Z,48.25
2022-12-15T13:15:20.084Z,48.49
2022-12-15T13:17:46.499Z,48.52
2022-12-15T13:20:15.108Z,48.58
2022-12-15T13:22:41.455Z,48.71
2022-12-15T13:25:07.716Z,48.75
2022-12-15T13:27:34.009Z,48.73
2022-12-15T13:30:00.264Z,48.62
2022-12-15T13:32:26.754Z,48.85
2022-12-15T13:34:53.160Z,48.73
2022-12-15T13:37:19.421Z,48.80
2022-12-15T13:39:45.747Z,48.80
2022-12-15T13:42:33.394Z,48.78
2022-12-15T13:45:01.680Z,48.70
2022-12-15T13:47:28.119Z,48.66
2022-12-15T13:50:01.070Z,48.72
2022-12-15T13:53:08.045Z,48.67
2022-12-15T13:55:14.738Z,48.57
2022-12-15T13:57:41.172Z,48.55
2022-12-15T14:00:07.453Z,48.66
2022-12-15T14:02:33.922Z,48.45
2022-12-15T14:05:00.246Z,48.38
2022-12-15T14:07:26.544Z,48.41
2022-12-15T14:09:52.836Z,48.39
2022-12-15T14:12:19.183Z,48.49
2022-12-15T14:14:45.574Z,48.62
2022-12-15T14:17:15.216Z,48.34
2022-12-15T14:19:41.512Z,48.40
2022-12-15T14:22:07.855Z,48.49
2022-12-15T14:24:38.903Z,48.39
2022-12-15T14:27:06.056Z,48.57
2022-12-15T14:29:32.509Z,48.49
2022-12-15T14:31:59.046Z,48.34
2022-12-15T14:34:25.449Z,48.49
2022-12-15T14:36:51.895Z,48.43
2022-12-15T14:39:18.328Z,48.41
2022-12-15T14:41:44.691Z,48.37
2022-12-15T14:44:37.365Z,48.25
2022-12-15T14:47:01.841Z,48.00
2022-12-15T14:49:28.257Z,48.06
2022-12-15T14:51:54.829Z,48.10
2022-12-15T14:54:21.339Z,48.16
2022-12-15T14:56:47.672Z,48.15
2022-12-15T14:59:13.949Z,48.05
2022-12-15T15:01:40.530Z,47.99
2022-12-15T15:03:09.638Z,47.47
2022-12-15T15:04:06.886Z,48.03
2022-12-15T15:06:33.355Z,47.95
2022-12-15T15:08:59.701Z,47.90
2022-12-15T15:11:26.021Z,47.78
2022-12-15T15:13:52.316Z,47.91
2022-12-15T15:16:18.842Z,47.87
2022-12-15T15:18:45.590Z,47.78
2022-12-15T15:21:11.851Z,47.85
2022-12-15T15:23:38.196Z,47.88
2022-12-15T15:26:04.853Z,47.70
2022-12-15T15:28:31.618Z,47.62
2022-12-15T15:30:58.278Z,47.57
2022-12-15T15:33:24.598Z,47.59
2022-12-15T15:35:51.053Z,47.56
2022-12-15T15:38:17.562Z,47.51
2022-12-15T15:40:44.319Z,47.51
2022-12-15T15:43:10.648Z,47.35
2022-12-15T15:45:36.930Z,47.38
2022-12-15T15:48:03.661Z,47.39
2022-12-15T15:50:29.986Z,47.49
2022-12-15T15:52:56.321Z,47.41
2022-12-15T15:55:22.599Z,47.23
2022-12-15T15:57:49.170Z,47.14
2022-12-15T16:00:15.395Z,47.28
2022-12-15T16:02:42.059Z,47.12
2022-12-15T16:05:08.529Z,47.06
2022-12-15T16:07:35.085Z,47.00
2022-12-15T16:10:01.349Z,46.96
2022-12-15T16:12:27.621Z,46.80
2022-12-15T16:14:53.896Z,47.00
2022-12-15T16:17:20.236Z,46.81
2022-12-15T16:19:46.517Z,46.96
2022-12-15T16:22:13.016Z,46.91
2022-12-15T16:24:39.266Z,46.92
2022-12-15T16:27:05.852Z,46.71
2022-12-15T16:29:32.291Z,46.78
2022-12-15T16:31:58.651Z,46.63
2022-12-15T16:34:25.033Z,46.61
2022-12-15T16:36:51.313Z,46.67
2022-12-15T16:39:17.751Z,46.52
2022-12-15T16:41:44.027Z,46.54
2022-12-15T16:44:10.261Z,46.56
2022-12-15T16:46:36.761Z,46.55
2022-12-15T16:49:03.103Z,46.52
2022-12-15T16:51:29.486Z,46.61
2022-12-15T16:53:55.951Z,46.73
2022-12-15T16:56:22.204Z,46.75
2022-12-15T16:58:52.881Z,46.83
2022-12-15T17:01:23.722Z,46.91
2022-12-15T17:03:50.199Z,46.86
2022-12-15T17:06:16.563Z,46.84
2022-12-15T17:08:42.863Z,46.78
2022-12-15T17:11:09.364Z,46.87
2022-12-15T17:13:40.606Z,46.72
2022-12-15T17:16:10.063Z,46.95
2022-12-15T17:18:36.628Z,46.81
2022-12-15T17:21:02.993Z,47.02
2022-12-15T17:23:29.562Z,46.96
2022-12-15T17:28:42.600Z,46.95
2022-12-15T17:31:09.003Z,46.84
2022-12-15T17:33:35.726Z,46.89
2022-12-15T17:36:02.240Z,47.06
2022-12-15T17:38:28.574Z,47.05
2022-12-15T17:40:54.902Z,46.90
2022-12-15T17:43:21.520Z,46.27
2022-12-15T17:45:47.961Z,45.88
2022-12-15T17:48:14.545Z,45.62
2022-12-15T17:50:40.867Z,45.01
2022-12-15T17:55:42.951Z,44.00
2022-12-15T18:00:49.166Z,43.12
2022-12-15T18:03:15.984Z,43.14
2022-12-15T18:05:42.466Z,42.91
2022-12-15T18:08:08.767Z,42.87
2022-12-15T18:10:35.149Z,42.32
2022-12-15T18:13:01.443Z,42.42
2022-12-15T18:15:27.946Z,42.39
2022-12-15T18:17:54.239Z,42.36
2022-12-15T18:20:20.603Z,42.47
2022-12-15T18:22:47.128Z,42.41
2022-12-15T18:30:27.973Z,42.61
2022-12-15T18:32:54.290Z,42.75
2022-12-15T18:35:20.655Z,42.69
2022-12-15T18:37:47.162Z,43.03
2022-12-15T18:40:13.531Z,43.14
2022-12-15T18:42:40.004Z,43.22
2022-12-15T18:45:06.280Z,42.96
2022-12-15T18:47:32.695Z,42.91
2022-12-15T18:49:59.027Z,43.08
2022-12-15T18:52:30.035Z,43.02
2022-12-15T18:54:59.480Z,42.90
2022-12-15T18:57:27.727Z,43.03
2022-12-15T18:59:54.028Z,43.04
2022-12-15T19:02:20.573Z,42.93
2022-12-15T19:09:58.007Z,43.06
2022-12-15T19:12:24.310Z,43.34
2022-12-15T19:14:50.700Z,43.04
2022-12-15T19:17:17.014Z,43.03
2022-12-15T19:19:43.450Z,43.29
2022-12-15T19:22:09.896Z,43.40
2022-12-15T19:24:36.361Z,43.64
2022-12-15T19:27:02.887Z,43.82
2022-12-15T19:29:29.354Z,43.70
2022-12-15T19:31:55.750Z,43.60
2022-12-15T19:34:22.370Z,43.71
2022-12-15T19:42:00.028Z,43.15
2022-12-15T19:44:26.282Z,43.37
2022-12-15T19:46:52.617Z,43.15
2022-12-15T19:49:18.952Z,43.04
2022-12-15T19:51:45.319Z,42.94
2022-12-15T19:54:11.613Z,43.08
2022-12-15T19:56:38.289Z,43.37
2022-12-15T20:04:24.170Z,43.53
2022-12-15T20:06:50.903Z,43.44
2022-12-15T20:14:32.046Z,43.24
2022-12-15T20:16:58.604Z,43.17
2022-12-15T20:19:24.917Z,43.28
2022-12-15T20:21:51.234Z,43.02
2022-12-15T20:24:17.488Z,43.36
2022-12-15T20:26:43.901Z,43.05
2022-12-15T20:29:10.254Z,43.35
2022-12-15T20:31:36.652Z,43.35
2022-12-15T20:34:03.020Z,43.62
2022-12-15T20:36:29.323Z,43.79
2022-12-15T20:38:55.576Z,43.98
2022-12-15T20:41:21.840Z,44.11
2022-12-15T20:43:48.216Z,44.11
2022-12-15T20:46:14.603Z,43.99
2022-12-15T20:48:40.955Z,44.08
2022-12-15T20:51:09.658Z,43.72
2022-12-15T20:58:54.063Z,41.25
2022-12-15T21:01:20.533Z,39.96
2022-12-15T21:03:47.035Z,39.53
2022-12-15T21:06:13.504Z,39.09
2022-12-15T21:08:39.864Z,38.35
2022-12-15T21:11:06.142Z,38.39
2022-12-15T21:13:32.793Z,38.58
2022-12-15T21:15:59.493Z,38.90
2022-12-15T21:19:18.131Z,39.24
2022-12-15T21:21:12.116Z,39.66
2022-12-15T21:23:42.578Z,40.18
2022-12-15T21:26:09.179Z,40.36
2022-12-15T21:28:35.723Z,40.54
2022-12-15T21:31:02.182Z,40.85
2022-12-15T21:33:28.811Z,41.09
2022-12-15T21:35:55.130Z,41.26
2022-12-15T21:38:21.616Z,41.37
2022-12-15T21:40:47.865Z,41.50
2022-12-15T21:43:14.541Z,41.49
2022-12-15T21:45:41.182Z,41.88
2022-12-15T21:48:07.521Z,41.97
2022-12-15T21:50:33.784Z,41.97
2022-12-15T21:53:00.098Z,41.97
2022-12-15T21:55:26.323Z,41.85
2022-12-15T21:57:52.588Z,41.71
2022-12-15T22:00:18.971Z,41.87
2022-12-15T22:02:45.348Z,41.88
2022-12-15T22:05:11.636Z,42.06
2022-12-15T22:07:38.006Z,41.06
2022-12-15T22:10:04.600Z,37.78
2022-12-15T22:12:31.040Z,37.06
2022-12-15T22:14:57.404Z,36.92
2022-12-15T22:17:23.719Z,36.93
2022-12-15T22:19:50.446Z,37.16
2022-12-15T22:22:17.867Z,37.71
2022-12-15T22:24:44.299Z,37.88
2022-12-15T22:27:10.589Z,38.05
2022-12-15T22:29:38.639Z,38.38
2022-12-15T22:32:05.491Z,38.43
2022-12-15T22:34:31.928Z,38.44
2022-12-15T22:36:58.164Z,38.84
2022-12-15T22:39:24.551Z,39.01
2022-12-15T22:41:50.927Z,39.16
2022-12-15T22:44:17.548Z,39.31
2022-12-15T22:46:44.255Z,39.32
2022-12-15T22:49:10.628Z,39.47
2022-12-15T22:51:36.996Z,39.58
2022-12-15T22:54:03.345Z,39.40
2022-12-15T22:56:29.587Z,39.62
2022-12-15T22:58:55.834Z,39.67
2022-12-15T23:01:22.154Z,39.63
2022-12-15T23:03:48.548Z,39.86
2022-12-15T23:06:14.866Z,39.88
2022-12-15T23:08:41.315Z,39.64
2022-12-15T23:11:07.580Z,39.88
2022-12-15T23:13:34.485Z,39.67
2022-12-15T23:16:01.015Z,39.84
2022-12-15T23:18:27.471Z,39.83
2022-12-15T23:20:53.721Z,39.86
2022-12-15T23:23:20.954Z,39.84
2022-12-15T23:25:47.406Z,39.83
2022-12-15T23:28:13.876Z,39.80
2022-12-15T23:30:40.183Z,39.60
2022-12-15T23:33:06.596Z,39.96
2022-12-15T23:35:32.884Z,39.74
2022-12-15T23:37:59.305Z,39.68
2022-12-15T23:40:25.612Z,39.93
2022-12-15T23:42:51.962Z,39.68
2022-12-15T23:45:18.554Z,39.77
2022-12-15T23:47:45.219Z,39.93
2022-12-15T23:50:11.667Z,39.85
2022-12-15T23:52:38.164Z,39.92
2022-12-15T23:55:04.498Z,39.90
2022-12-15T23:57:30.980Z,39.95
2022-12-15T23:59:57.651Z,39.87
